Time;durP1;ratioP1;P1;durP2;ratioP2;P2;SDS_P1;SDS_P2;PMS_P1;PMS_P2;Temp;Humidity;BMP_temperature;BMP_pressure;BME280_temperature;BME280_humidity;BME280_pressure;Samples;Min_cycle;Max_cycle;Signal;HPM_P1;HPM_P2
2023/04/19 00:00:37;;;;;;;6.88;4.85;;;14.60;82.40;;;;;;5043380;28;20099;-58
2023/04/19 00:03:04;;;;;;;5.72;5.15;;;14.60;82.40;;;;;;5044169;28;20029;-58
2023/04/19 00:05:30;;;;;;;6.65;5.00;;;14.60;82.30;;;;;;5044408;28;20045;-59
2023/04/19 00:07:55;;;;;;;9.70;4.95;;;14.60;82.50;;;;;;5045760;28;20033;-58
2023/04/19 00:10:21;;;;;;;5.70;4.60;;;14.60;82.50;;;;;;5045528;28;20041;-58
2023/04/19 00:12:46;;;;;;;5.20;4.70;;;14.60;82.60;;;;;;5044250;28;20021;-58
2023/04/19 00:15:12;;;;;;;5.13;4.63;;;14.60;82.60;;;;;;5027543;28;20037;-58
2023/04/19 00:17:38;;;;;;;5.65;5.10;;;14.50;82.60;;;;;;5045358;28;20025;-58
2023/04/19 00:20:04;;;;;;;6.68;4.85;;;14.50;82.70;;;;;;5045386;28;20029;-58
2023/04/19 00:22:30;;;;;;;5.32;4.82;;;14.50;82.80;;;;;;5027749;28;20021;-58
2023/04/19 00:24:55;;;;;;;6.07;5.25;;;14.40;83.40;;;;;;5045144;28;20036;-58
2023/04/19 00:27:21;;;;;;;5.60;4.93;;;14.40;83.00;;;;;;5044069;28;20036;-58
2023/04/19 00:29:47;;;;;;;5.63;5.13;;;14.40;83.00;;;;;;5027259;28;20041;-58
2023/04/19 00:32:12;;;;;;;7.63;5.30;;;14.40;83.00;;;;;;5043836;28;20029;-58
2023/04/19 00:34:38;;;;;;;5.47;4.97;;;14.40;83.10;;;;;;5043744;28;20044;-58
2023/04/19 00:37:04;;;;;;;6.43;5.50;;;14.40;83.20;;;;;;5045021;28;20049;-58
2023/04/19 00:39:29;;;;;;;6.05;5.45;;;14.40;83.30;;;;;;5044972;28;20050;-58
2023/04/19 00:41:56;;;;;;;5.50;5.00;;;14.30;83.30;;;;;;5045090;28;20366;-58
2023/04/19 00:44:22;;;;;;;5.35;4.85;;;14.30;83.30;;;;;;5045008;28;20034;-58
2023/04/19 00:46:48;;;;;;;6.25;5.25;;;14.30;84.10;;;;;;5027251;28;20034;-58
2023/04/19 00:49:13;;;;;;;5.90;5.30;;;14.30;83.50;;;;;;5027402;28;20041;-58
2023/04/19 00:51:39;;;;;;;5.68;4.95;;;14.30;83.60;;;;;;5027167;28;20033;-58
2023/04/19 00:54:06;;;;;;;5.72;5.13;;;14.30;83.60;;;;;;5026983;28;20021;-58
2023/04/19 00:56:32;;;;;;;8.85;5.70;;;14.20;83.60;;;;;;5027237;28;20030;-58
2023/04/19 00:58:58;;;;;;;6.03;5.43;;;14.20;84.40;;;;;;5027265;28;20048;-58
2023/04/19 01:01:24;;;;;;;6.50;5.38;;;14.20;83.80;;;;;;5043633;28;20025;-58
2023/04/19 01:03:49;;;;;;;6.50;5.65;;;14.20;83.90;;;;;;5044699;28;20036;-58
2023/04/19 01:06:15;;;;;;;6.20;5.60;;;14.20;84.60;;;;;;5043477;28;20034;-59
2023/04/19 01:08:40;;;;;;;5.88;5.38;;;14.20;84.00;;;;;;5043458;28;20045;-58
2023/04/19 01:11:07;;;;;;;6.38;5.70;;;14.10;84.00;;;;;;5043177;28;20029;-58
2023/04/19 01:13:33;;;;;;;9.32;5.80;;;14.20;84.20;;;;;;5043594;28;20025;-58
2023/04/19 01:15:58;;;;;;;6.15;5.65;;;14.20;84.30;;;;;;5026865;28;20030;-58
2023/04/19 01:18:24;;;;;;;6.82;6.03;;;14.10;84.30;;;;;;5043206;28;20063;-58
2023/04/19 01:20:51;;;;;;;6.22;5.63;;;14.10;84.30;;;;;;5027031;28;20029;-58
2023/04/19 01:23:16;;;;;;;7.00;6.30;;;14.10;84.40;;;;;;5043283;28;20496;-58
2023/04/19 01:25:42;;;;;;;7.65;6.00;;;14.10;84.40;;;;;;5044639;28;20041;-58
2023/04/19 01:28:07;;;;;;;7.63;6.53;;;14.10;84.60;;;;;;5044377;28;20053;-58
2023/04/19 01:30:33;;;;;;;6.50;5.90;;;14.00;84.60;;;;;;5043142;28;20444;-58
2023/04/19 01:32:59;;;;;;;6.95;6.25;;;14.00;84.70;;;;;;5044356;28;20026;-58
2023/04/19 01:35:25;;;;;;;6.88;5.60;;;14.00;84.70;;;;;;5044431;28;20086;-58
2023/04/19 01:37:52;;;;;;;6.72;6.05;;;14.00;84.80;;;;;;5044347;28;20068;-58
2023/04/19 01:40:17;;;;;;;6.18;5.50;;;14.00;84.90;;;;;;5044553;28;20034;-58
2023/04/19 01:42:43;;;;;;;6.60;6.00;;;14.00;84.90;;;;;;5042954;28;20036;-58
2023/04/19 01:45:09;;;;;;;8.25;6.75;;;14.00;85.00;;;;;;5044418;28;20517;-58
2023/04/19 01:47:34;;;;;;;6.90;6.25;;;14.00;85.20;;;;;;5044210;28;20034;-58
2023/04/19 01:50:00;;;;;;;8.07;7.00;;;13.90;85.20;;;;;;5042857;28;20450;-58
2023/04/19 01:52:25;;;;;;;9.57;7.25;;;13.90;85.20;;;;;;5009820;28;20040;-58
2023/04/19 01:54:51;;;;;;;7.93;7.13;;;13.90;85.30;;;;;;5044293;28;20129;-59
2023/04/19 01:57:17;;;;;;;9.18;7.47;;;13.90;85.30;;;;;;5042460;28;20381;-58
2023/04/19 01:59:43;;;;;;;8.88;7.97;;;13.90;85.40;;;;;;5044156;28;20029;-58
2023/04/19 02:02:08;;;;;;;9.60;6.95;;;13.90;85.50;;;;;;5026419;28;20043;-58
2023/04/19 02:04:34;;;;;;;9.07;7.53;;;13.90;86.30;;;;;;5042724;28;20034;-59
2023/04/19 02:07:00;;;;;;;8.23;7.20;;;13.80;85.70;;;;;;5044011;28;20526;-58
2023/04/19 02:09:25;;;;;;;8.05;7.25;;;13.90;85.80;;;;;;5042846;28;20047;-58
2023/04/19 02:11:51;;;;;;;8.88;7.60;;;13.90;85.90;;;;;;5026286;28;20040;-58
2023/04/19 02:14:16;;;;;;;7.85;7.05;;;13.80;86.00;;;;;;5026309;28;20514;-58
2023/04/19 02:16:42;;;;;;;9.30;7.05;;;13.80;86.20;;;;;;5026379;28;20029;-58
2023/04/19 02:19:08;;;;;;;8.80;6.72;;;13.80;86.30;;;;;;5042587;28;20026;-59
2023/04/19 02:21:33;;;;;;;8.30;7.47;;;13.80;86.30;;;;;;5026262;28;20025;-58
2023/04/19 02:23:59;;;;;;;7.78;6.97;;;13.80;86.30;;;;;;5045667;28;20014;-58
2023/04/19 02:26:25;;;;;;;9.02;7.07;;;13.80;86.40;;;;;;5046339;28;20085;-58
2023/04/19 02:28:51;;;;;;;8.02;7.22;;;13.80;86.40;;;;;;5045832;28;20125;-58
2023/04/19 02:31:17;;;;;;;7.57;6.82;;;13.80;86.40;;;;;;5047526;28;20025;-58
2023/04/19 02:33:43;;;;;;;10.15;7.72;;;13.80;86.50;;;;;;5045941;28;20028;-58
2023/04/19 02:36:08;;;;;;;7.40;6.70;;;13.80;86.50;;;;;;5045924;28;20057;-57
2023/04/19 02:38:34;;;;;;;7.70;6.90;;;13.80;86.60;;;;;;5046944;28;20043;-58
2023/04/19 02:41:03;;;;;;;7.55;6.85;;;13.80;86.70;;;;;;5046441;28;20152;-58
2023/04/19 02:43:29;;;;;;;7.82;7.03;;;13.80;86.70;;;;;;5047173;28;20017;-58
2023/04/19 02:45:54;;;;;;;9.15;7.30;;;13.80;87.20;;;;;;5029493;28;20068;-58
2023/04/19 02:48:20;;;;;;;7.90;7.10;;;13.80;86.70;;;;;;5045909;28;20029;-58
2023/04/19 02:50:45;;;;;;;8.27;7.47;;;13.80;86.80;;;;;;5046994;28;20097;-58
2023/04/19 02:53:11;;;;;;;7.95;7.15;;;13.80;87.00;;;;;;5029203;28;20029;-58
2023/04/19 02:55:37;;;;;;;7.60;6.82;;;13.80;86.90;;;;;;5047098;28;20021;-58
2023/04/19 02:58:02;;;;;;;9.00;7.57;;;13.70;86.80;;;;;;5045461;28;20045;-58
2023/04/19 03:00:28;;;;;;;7.75;6.95;;;13.80;86.90;;;;;;5029100;28;20032;-58
2023/04/19 03:02:55;;;;;;;8.63;7.15;;;13.80;87.70;;;;;;5045462;28;20422;-58
2023/04/19 03:05:21;;;;;;;10.85;8.35;;;13.70;86.90;;;;;;5012723;28;20037;-59
2023/04/19 03:07:46;;;;;;;11.65;10.45;;;13.80;87.00;;;;;;5045391;28;20025;-58
2023/04/19 03:10:12;;;;;;;10.38;9.25;;;13.70;86.90;;;;;;5046822;28;20083;-58
2023/04/19 03:12:37;;;;;;;11.15;9.38;;;13.70;86.90;;;;;;5045279;28;20033;-58
2023/04/19 03:15:03;;;;;;;15.70;8.48;;;13.70;86.90;;;;;;5045307;28;20029;-58
2023/04/19 03:17:29;;;;;;;10.07;8.85;;;13.70;87.00;;;;;;5046427;28;20037;-58
2023/04/19 03:19:55;;;;;;;9.35;8.32;;;13.70;86.90;;;;;;5012181;28;20036;-58
2023/04/19 03:22:21;;;;;;;9.68;8.35;;;13.70;87.00;;;;;;5045268;28;20045;-58
2023/04/19 03:24:46;;;;;;;9.23;7.40;;;13.70;87.10;;;;;;5046393;28;20033;-58
2023/04/19 03:27:12;;;;;;;10.95;7.50;;;13.70;87.10;;;;;;5028658;28;20048;-58
2023/04/19 03:29:37;;;;;;;10.75;9.60;;;13.70;87.10;;;;;;5044928;28;20469;-58
2023/04/19 03:32:03;;;;;;;19.17;10.80;;;13.70;87.00;;;;;;5028484;28;20037;-59
2023/04/19 03:34:28;;;;;;;26.40;10.73;;;13.70;87.10;;;;;;5045990;28;20076;-58
2023/04/19 03:36:54;;;;;;;24.55;10.45;;;13.70;87.20;;;;;;5046182;28;20033;-59
2023/04/19 03:39:20;;;;;;;12.50;9.93;;;13.60;87.20;;;;;;5044944;28;20025;-58
2023/04/19 03:41:45;;;;;;;10.30;8.68;;;13.60;87.30;;;;;;5044614;28;20025;-58
2023/04/19 03:44:11;;;;;;;27.10;10.07;;;13.70;87.30;;;;;;5046044;28;20128;-58
2023/04/19 03:46:36;;;;;;;19.50;9.73;;;13.60;87.30;;;;;;5044843;28;20089;-58
2023/04/19 03:49:02;;;;;;;22.05;9.25;;;13.60;87.30;;;;;;5028130;28;20045;-58
2023/04/19 03:51:28;;;;;;;20.38;9.68;;;13.70;87.40;;;;;;5044434;28;20101;-58
2023/04/19 03:53:53;;;;;;;24.70;9.52;;;13.60;87.40;;;;;;5046036;28;20029;-58
2023/04/19 03:56:19;;;;;;;22.65;9.13;;;13.60;87.50;;;;;;5045934;28;20033;-58
2023/04/19 03:58:45;;;;;;;24.90;8.93;;;13.60;87.50;;;;;;5046043;28;20025;-58
2023/04/19 04:01:20;;;;;;;23.90;9.15;;;13.60;87.60;;;;;;5028138;28;20049;-58
2023/04/19 04:03:46;;;;;;;14.77;8.60;;;13.60;87.70;;;;;;5028256;28;20423;-59
2023/04/19 04:06:11;;;;;;;24.90;9.93;;;13.60;87.70;;;;;;5044451;28;20048;-58
2023/04/19 04:08:37;;;;;;;35.25;11.80;;;13.60;88.40;;;;;;5027840;28;20021;-58
2023/04/19 04:11:03;;;;;;;16.63;10.18;;;13.60;87.80;;;;;;5043998;28;20462;-58
2023/04/19 04:13:28;;;;;;;26.52;8.63;;;13.50;87.70;;;;;;5044347;28;20113;-58
2023/04/19 04:15:54;;;;;;;19.02;8.65;;;13.60;87.90;;;;;;5044295;28;20036;-58
2023/04/19 04:18:19;;;;;;;15.30;8.48;;;13.50;87.80;;;;;;5027607;28;20056;-59
2023/04/19 04:20:45;;;;;;;22.20;8.50;;;13.60;87.90;;;;;;5043831;28;20045;-58
2023/04/19 04:23:10;;;;;;;15.52;8.70;;;13.50;87.90;;;;;;5045343;28;20026;-58
2023/04/19 04:25:38;;;;;;;16.83;7.78;;;13.50;87.90;;;;;;5043850;28;20034;-58
2023/04/19 04:28:03;;;;;;;13.00;8.25;;;13.50;87.90;;;;;;5045082;28;20028;-59
2023/04/19 04:30:29;;;;;;;18.85;8.32;;;13.50;88.10;;;;;;5027525;28;20033;-58
2023/04/19 04:32:56;;;;;;;19.75;8.25;;;13.50;88.10;;;;;;5045198;28;20026;-58
2023/04/19 04:35:22;;;;;;;14.10;7.45;;;13.50;89.00;;;;;;5045239;28;20064;-58
2023/04/19 04:37:48;;;;;;;15.25;7.75;;;13.50;89.30;;;;;;5043770;28;20029;-58
2023/04/19 04:40:14;;;;;;;15.18;8.10;;;13.50;88.70;;;;;;5043756;28;20029;-58
2023/04/19 04:42:40;;;;;;;11.65;7.65;;;13.50;88.60;;;;;;5043740;28;20051;-58
2023/04/19 04:45:06;;;;;;;11.45;6.93;;;13.50;88.50;;;;;;5044989;28;20029;-58
2023/04/19 04:47:32;;;;;;;16.13;7.25;;;13.50;88.50;;;;;;5044348;28;20021;-58
2023/04/19 04:49:59;;;;;;;13.55;7.20;;;13.40;88.60;;;;;;5027192;28;20037;-58
2023/04/19 04:52:24;;;;;;;14.48;7.70;;;13.40;88.70;;;;;;5043370;28;20037;-58
2023/04/19 04:54:50;;;;;;;9.18;7.28;;;13.40;88.80;;;;;;5043462;28;20048;-58
2023/04/19 04:57:15;;;;;;;13.05;7.30;;;13.40;88.70;;;;;;5043263;28;20083;-58
2023/04/19 04:59:41;;;;;;;8.82;7.22;;;13.50;88.80;;;;;;5044623;28;20044;-58
2023/04/19 05:02:07;;;;;;;14.48;7.22;;;13.40;88.80;;;;;;5027069;28;20017;-58
2023/04/19 05:04:32;;;;;;;10.52;6.75;;;13.50;88.80;;;;;;5043450;28;20040;-58
2023/04/19 05:06:58;;;;;;;15.10;7.35;;;13.40;88.80;;;;;;5043524;28;20025;-58
2023/04/19 05:09:23;;;;;;;9.65;6.93;;;13.40;88.80;;;;;;5044670;28;20085;-58
2023/04/19 05:11:49;;;;;;;11.95;7.03;;;13.40;88.80;;;;;;5044635;28;20052;-58
2023/04/19 05:14:14;;;;;;;9.75;7.13;;;13.40;88.80;;;;;;5043343;28;20089;-58
2023/04/19 05:16:40;;;;;;;9.73;7.20;;;13.40;88.80;;;;;;5043178;28;20026;-58
2023/04/19 05:19:05;;;;;;;11.73;6.78;;;13.30;88.70;;;;;;5044450;28;20117;-58
2023/04/19 05:21:33;;;;;;;9.60;6.97;;;13.40;88.70;;;;;;5043136;28;20029;-58
2023/04/19 05:23:58;;;;;;;12.95;6.93;;;13.40;88.70;;;;;;5043251;28;20018;-58
2023/04/19 05:26:24;;;;;;;7.97;6.90;;;13.30;88.70;;;;;;5044539;28;20036;-58
2023/04/19 05:28:49;;;;;;;8.27;6.70;;;13.40;88.80;;;;;;5043162;28;20434;-58
2023/04/19 05:31:15;;;;;;;10.27;6.70;;;13.40;88.90;;;;;;5026650;28;20022;-58
2023/04/19 05:33:41;;;;;;;6.95;6.25;;;13.40;88.90;;;;;;5043123;28;20029;-58
2023/04/19 05:36:06;;;;;;;12.70;6.70;;;13.30;88.70;;;;;;5043139;28;20037;-58
2023/04/19 05:38:32;;;;;;;10.77;6.72;;;13.40;88.80;;;;;;5043131;28;20049;-58
2023/04/19 05:40:58;;;;;;;7.43;6.45;;;13.40;88.70;;;;;;5043019;28;20058;-58
2023/04/19 05:43:23;;;;;;;7.05;6.32;;;13.30;88.70;;;;;;5026594;28;20033;-58
2023/04/19 05:45:49;;;;;;;9.43;6.80;;;13.30;88.70;;;;;;5043027;28;20026;-58
2023/04/19 05:48:14;;;;;;;8.45;7.13;;;13.30;88.70;;;;;;5042874;28;20078;-58
2023/04/19 05:50:40;;;;;;;7.30;6.13;;;13.30;88.70;;;;;;5043890;28;20034;-58
2023/04/19 05:53:06;;;;;;;10.82;6.13;;;13.30;88.70;;;;;;5042516;28;20041;-58
2023/04/19 05:55:31;;;;;;;7.68;6.45;;;13.30;88.80;;;;;;5042641;28;20389;-58
2023/04/19 05:58:00;;;;;;;7.00;6.03;;;13.30;88.80;;;;;;5044627;28;20029;-58
2023/04/19 06:00:27;;;;;;;9.43;6.85;;;13.30;88.70;;;;;;5046386;28;20132;-58
2023/04/19 06:02:52;;;;;;;7.72;5.95;;;13.20;88.70;;;;;;5046386;28;20036;-58
2023/04/19 06:05:18;;;;;;;9.15;6.82;;;13.20;88.90;;;;;;5028477;28;20025;-58
2023/04/19 06:07:44;;;;;;;10.98;6.53;;;13.20;88.90;;;;;;5047618;28;20061;-58
2023/04/19 06:10:10;;;;;;;13.80;6.60;;;13.30;88.90;;;;;;5047893;28;20041;-59
2023/04/19 06:12:35;;;;;;;10.65;6.20;;;13.20;88.90;;;;;;5043193;28;20075;-59
2023/04/19 06:15:01;;;;;;;9.82;6.43;;;13.20;88.90;;;;;;5033466;28;20064;-58
2023/04/19 06:17:26;;;;;;;7.03;5.70;;;13.20;89.00;;;;;;5029977;28;20026;-56
2023/04/19 06:19:52;;;;;;;10.82;6.72;;;13.20;89.00;;;;;;5027335;28;20029;-56
2023/04/19 06:22:18;;;;;;;8.98;6.25;;;13.20;89.10;;;;;;5033869;28;20120;-56
2023/04/19 06:24:44;;;;;;;8.52;6.70;;;13.20;89.70;;;;;;5041397;28;20048;-56
2023/04/19 06:27:10;;;;;;;7.97;6.18;;;13.30;89.10;;;;;;5034705;28;20041;-56
2023/04/19 06:29:36;;;;;;;11.52;6.70;;;13.30;89.00;;;;;;5048304;28;20029;-56
2023/04/19 06:32:01;;;;;;;11.27;6.70;;;13.20;89.00;;;;;;5046459;28;20068;-56
2023/04/19 06:34:27;;;;;;;14.35;6.68;;;13.20;89.00;;;;;;5020844;28;20060;-56
2023/04/19 06:36:53;;;;;;;8.20;6.22;;;13.20;89.70;;;;;;5021987;28;20029;-56
2023/04/19 06:39:18;;;;;;;7.80;6.43;;;13.20;89.00;;;;;;5030999;28;20026;-56
2023/04/19 06:41:44;;;;;;;15.13;7.20;;;13.30;89.00;;;;;;5023325;28;20046;-56
2023/04/19 06:44:10;;;;;;;13.13;6.78;;;13.30;88.90;;;;;;5030533;28;20091;-56
2023/04/19 06:46:36;;;;;;;17.40;6.97;;;13.30;88.90;;;;;;5035860;28;20059;-56
2023/04/19 06:49:01;;;;;;;14.40;6.57;;;13.30;88.90;;;;;;5030453;28;20053;-56
2023/04/19 06:51:27;;;;;;;12.35;7.05;;;13.30;88.80;;;;;;5031788;28;21379;-56
2023/04/19 06:53:53;;;;;;;11.32;6.32;;;13.30;88.70;;;;;;5035122;28;20682;-56
2023/04/19 06:56:35;;;;;;;16.73;7.30;;;13.30;88.70;;;;;;5028603;28;20060;-56
2023/04/19 06:59:00;;;;;;;10.65;6.50;;;13.30;88.70;;;;;;5019356;28;20060;-56
2023/04/19 07:01:26;;;;;;;17.35;6.45;;;13.40;88.70;;;;;;5035576;28;20021;-56
2023/04/19 07:03:51;;;;;;;11.05;7.05;;;13.40;88.60;;;;;;5013029;28;20030;-56
2023/04/19 07:06:17;;;;;;;21.30;7.72;;;13.40;88.60;;;;;;5032454;28;20031;-56
2023/04/19 07:08:43;;;;;;;20.50;6.90;;;13.40;89.20;;;;;;5040731;28;20040;-56
2023/04/19 07:11:08;;;;;;;15.25;7.13;;;13.40;88.60;;;;;;5028781;28;20094;-56
2023/04/19 07:13:34;;;;;;;17.63;7.60;;;13.40;88.60;;;;;;5045898;28;20032;-56
2023/04/19 07:16:03;;;;;;;17.17;7.50;;;13.40;88.50;;;;;;5029886;28;20067;-56
2023/04/19 07:18:28;;;;;;;16.08;6.88;;;13.40;88.60;;;;;;5036226;28;20040;-56
2023/04/19 07:20:54;;;;;;;13.35;6.85;;;13.40;88.60;;;;;;5033517;28;20026;-56
2023/04/19 07:23:20;;;;;;;23.70;7.60;;;13.40;88.60;;;;;;5044865;28;20026;-55
2023/04/19 07:25:45;;;;;;;85.90;12.40;;;13.40;88.50;;;;;;5035267;28;20128;-56
2023/04/19 07:28:11;;;;;;;69.78;10.88;;;13.40;88.50;;;;;;5024400;28;20475;-55
2023/04/19 07:30:36;;;;;;;29.58;8.50;;;13.40;89.20;;;;;;5039067;28;20072;-56
2023/04/19 07:33:03;;;;;;;25.77;7.68;;;13.50;88.60;;;;;;5022723;28;20593;-55
2023/04/19 07:35:29;;;;;;;32.45;9.57;;;13.50;88.40;;;;;;5022656;28;20202;-56
2023/04/19 07:37:54;;;;;;;38.10;9.93;;;13.50;88.50;;;;;;5022673;28;20116;-56
2023/04/19 07:40:20;;;;;;;27.83;8.52;;;13.50;88.50;;;;;;5024251;28;20049;-56
2023/04/19 07:42:45;;;;;;;39.00;8.10;;;13.50;88.40;;;;;;5025477;28;20050;-56
2023/04/19 07:45:11;;;;;;;27.15;8.45;;;13.50;88.40;;;;;;5026343;28;20033;-56
2023/04/19 07:47:37;;;;;;;58.65;10.38;;;13.50;88.40;;;;;;5026329;28;20037;-56
2023/04/19 07:50:04;;;;;;;45.63;9.65;;;13.50;88.40;;;;;;5026111;28;20046;-56
2023/04/19 07:52:30;;;;;;;28.05;8.20;;;13.50;88.40;;;;;;5026189;28;20101;-55
2023/04/19 07:54:56;;;;;;;50.08;9.90;;;13.50;88.40;;;;;;5026245;28;20057;-55
2023/04/19 07:57:21;;;;;;;35.92;8.63;;;13.50;88.40;;;;;;5026049;28;20042;-55
2023/04/19 07:59:47;;;;;;;26.45;8.68;;;13.50;88.40;;;;;;5024486;28;20368;-55
2023/04/19 08:02:13;;;;;;;26.02;8.45;;;13.60;88.50;;;;;;5026291;28;20034;-55
2023/04/19 08:04:38;;;;;;;29.40;8.70;;;13.60;88.50;;;;;;5026000;28;20113;-55
2023/04/19 08:07:04;;;;;;;37.85;8.07;;;13.60;88.40;;;;;;5026142;28;20030;-56
2023/04/19 08:09:29;;;;;;;30.17;9.18;;;13.60;88.30;;;;;;5024344;28;20213;-55
2023/04/19 08:11:57;;;;;;;34.60;8.80;;;13.60;88.40;;;;;;5024346;28;20448;-55
2023/04/19 08:14:22;;;;;;;29.80;8.82;;;13.60;88.40;;;;;;5025549;28;20106;-56
2023/04/19 08:16:48;;;;;;;24.60;9.15;;;13.60;88.30;;;;;;5040594;28;20030;-56
2023/04/19 08:19:13;;;;;;;28.38;8.48;;;13.70;88.10;;;;;;5007580;28;20037;-56
2023/04/19 08:21:39;;;;;;;21.40;7.45;;;13.70;88.10;;;;;;5024408;28;20086;-56
2023/04/19 08:24:05;;;;;;;31.90;8.00;;;13.70;88.10;;;;;;5025229;28;20075;-56
2023/04/19 08:26:30;;;;;;;27.92;8.43;;;13.70;88.00;;;;;;5025434;28;20026;-56
2023/04/19 08:28:56;;;;;;;37.95;7.90;;;13.70;88.00;;;;;;5025420;28;20022;-56
2023/04/19 08:31:22;;;;;;;35.78;8.70;;;13.70;87.90;;;;;;5023924;28;20022;-56
2023/04/19 08:33:47;;;;;;;34.22;8.60;;;13.80;88.00;;;;;;5040216;28;20049;-56
2023/04/19 08:36:13;;;;;;;34.50;8.63;;;13.80;88.00;;;;;;5056883;28;20038;-56
2023/04/19 08:38:40;;;;;;;39.00;8.63;;;13.80;87.80;;;;;;5025098;28;20033;-56
2023/04/19 08:41:05;;;;;;;30.60;9.23;;;13.80;87.80;;;;;;5023853;28;20089;-56
2023/04/19 08:43:32;;;;;;;46.33;9.35;;;13.80;87.80;;;;;;5056780;28;20033;-56
2023/04/19 08:45:58;;;;;;;31.75;8.55;;;13.80;87.80;;;;;;5039933;28;20037;-55
2023/04/19 08:48:24;;;;;;;44.75;9.63;;;13.80;88.60;;;;;;5023506;28;20033;-56
2023/04/19 08:50:49;;;;;;;35.80;8.85;;;13.90;88.60;;;;;;5023288;28;20037;-56
2023/04/19 08:53:15;;;;;;;43.58;8.70;;;13.90;87.80;;;;;;5023755;28;20083;-56
2023/04/19 08:55:41;;;;;;;22.40;7.15;;;13.90;87.70;;;;;;5040058;28;20034;-55
2023/04/19 08:58:08;;;;;;;36.63;8.43;;;13.90;87.70;;;;;;5023452;28;20030;-56
2023/04/19 09:00:36;;;;;;;24.20;7.47;;;13.90;87.70;;;;;;5059078;28;20048;-56
2023/04/19 09:03:02;;;;;;;27.15;7.22;;;13.90;87.60;;;;;;5063316;28;20025;-56
2023/04/19 09:05:28;;;;;;;27.00;7.97;;;14.00;87.60;;;;;;5064451;28;20107;-56
2023/04/19 09:07:54;;;;;;;27.63;7.43;;;14.00;87.50;;;;;;5064782;28;20017;-56
2023/04/19 09:10:19;;;;;;;30.52;7.65;;;14.00;88.20;;;;;;5061486;28;20028;-56
2023/04/19 09:12:59;;;;;;;29.45;7.35;;;14.00;87.50;;;;;;5063074;28;20489;-55
2023/04/19 09:15:36;;;;;;;25.75;8.02;;;14.00;87.30;;;;;;5063511;28;20052;-56
2023/04/19 09:18:09;;;;;;;24.25;6.78;;;14.00;87.20;;;;;;5044673;28;20025;-56
2023/04/19 09:20:38;;;;;;;21.42;6.88;;;14.10;87.20;;;;;;5060505;28;20090;-56
2023/04/19 09:23:04;;;;;;;22.00;6.82;;;14.10;87.20;;;;;;5060935;28;20085;-56
2023/04/19 09:25:30;;;;;;;33.75;7.60;;;14.10;87.10;;;;;;5061551;28;20084;-56
2023/04/19 09:28:08;;;;;;;19.35;6.50;;;14.10;87.00;;;;;;5059656;28;20071;-56
2023/04/19 09:30:33;;;;;;;22.67;7.20;;;14.10;87.00;;;;;;5062635;28;20051;-56
2023/04/19 09:32:59;;;;;;;26.30;7.13;;;14.10;86.90;;;;;;5064831;28;20503;-56
2023/04/19 09:35:47;;;;;;;31.25;7.60;;;14.20;86.90;;;;;;5068284;28;20040;-56
2023/04/19 09:38:13;;;;;;;26.58;7.03;;;14.20;86.90;;;;;;5049194;28;20033;-56
2023/04/19 09:40:40;;;;;;;22.60;6.65;;;14.20;86.90;;;;;;5047023;28;20038;-56
2023/04/19 09:43:06;;;;;;;27.35;7.07;;;14.30;86.90;;;;;;5046701;28;20057;-55
2023/04/19 09:45:45;;;;;;;49.15;8.82;;;14.20;86.90;;;;;;5045459;28;20030;-55
2023/04/19 09:48:11;;;;;;;36.45;7.32;;;14.30;86.90;;;;;;5047485;28;20030;-56
2023/04/19 09:50:53;;;;;;;38.65;8.20;;;14.30;87.00;;;;;;5046740;28;20045;-56
2023/04/19 09:53:19;;;;;;;33.70;7.10;;;14.30;87.00;;;;;;5046953;28;20534;-56
2023/04/19 09:55:46;;;;;;;28.83;6.90;;;14.30;86.90;;;;;;5047286;28;20042;-56
2023/04/19 09:58:12;;;;;;;28.38;7.20;;;14.40;86.90;;;;;;5048263;28;20551;-56
2023/04/19 10:00:38;;;;;;;26.92;6.55;;;14.40;86.80;;;;;;5045587;28;20037;-56
2023/04/19 10:03:03;;;;;;;25.35;6.38;;;14.40;86.60;;;;;;5041919;28;20017;-55
2023/04/19 10:05:29;;;;;;;36.50;7.75;;;14.40;86.60;;;;;;5033772;28;20486;-56
2023/04/19 10:07:58;;;;;;;35.25;8.23;;;14.40;86.60;;;;;;5008167;28;20378;-56
2023/04/19 10:10:23;;;;;;;35.03;7.45;;;14.50;86.60;;;;;;5031402;28;20033;-56
2023/04/19 10:12:51;;;;;;;44.33;7.18;;;14.50;86.50;;;;;;5042337;28;20249;-56
2023/04/19 10:15:18;;;;;;;32.83;7.60;;;14.30;86.40;;;;;;5027857;28;20099;-55
2023/04/19 10:17:43;;;;;;;31.33;6.90;;;14.50;87.10;;;;;;5045527;28;20047;-56
2023/04/19 10:20:12;;;;;;;81.78;13.20;;;14.60;86.50;;;;;;5029154;28;20175;-56
2023/04/19 10:22:38;;;;;;;123.38;17.88;;;14.60;86.30;;;;;;5044136;28;20049;-56
2023/04/19 10:25:14;;;;;;;57.15;9.75;;;14.60;86.30;;;;;;5045769;28;20044;-56
2023/04/19 10:27:44;;;;;;;53.67;9.38;;;14.60;86.20;;;;;;5045684;28;20049;-56
2023/04/19 10:30:36;;;;;;;52.33;10.23;;;14.60;86.30;;;;;;5045482;28;20040;-56
2023/04/19 10:33:03;;;;;;;51.03;10.02;;;14.60;86.10;;;;;;5041355;28;20033;-56
2023/04/19 10:35:39;;;;;;;56.53;11.18;;;14.70;86.10;;;;;;5027146;28;20042;-56
2023/04/19 10:38:11;;;;;;;;;;;14.70;86.00;;;;;;5045045;28;20030;-56
2023/04/19 10:40:59;;;;;;;59.47;9.65;;;14.70;85.90;;;;;;5045533;28;19919;-56
2023/04/19 10:43:25;;;;;;;54.58;10.02;;;14.70;85.80;;;;;;5044729;28;20017;-56
2023/04/19 10:45:51;;;;;;;60.25;10.38;;;14.80;86.40;;;;;;5037828;28;20089;-56
2023/04/19 10:48:32;;;;;;;47.65;10.18;;;14.80;85.70;;;;;;5017024;28;20037;-55
2023/04/19 10:51:04;;;;;;;134.65;17.05;;;14.80;85.70;;;;;;5040878;28;20117;-56
2023/04/19 10:53:46;;;;;;;89.30;12.68;;;14.80;85.70;;;;;;5024773;28;20105;-56
2023/04/19 10:56:12;;;;;;;61.55;10.98;;;14.80;85.50;;;;;;5025555;28;20037;-56
2023/04/19 10:59:14;;;;;;;57.40;10.82;;;14.80;85.40;;;;;;5058481;28;20032;-56
2023/04/19 11:01:41;;;;;;;53.53;9.18;;;14.90;85.40;;;;;;5045216;28;20071;-56
2023/04/19 11:04:13;;;;;;;52.75;10.05;;;14.90;85.20;;;;;;5027349;28;20018;-56
2023/04/19 11:06:54;;;;;;;61.65;9.98;;;15.00;85.10;;;;;;5040966;28;20033;-56
2023/04/19 11:09:37;;;;;;;46.95;9.77;;;15.00;85.00;;;;;;5026504;28;20030;-56
2023/04/19 11:12:09;;;;;;;56.58;10.00;;;15.00;84.90;;;;;;5033253;28;20018;-55
2023/04/19 11:14:39;;;;;;;43.72;8.65;;;15.00;84.70;;;;;;5044495;28;20029;-56
2023/04/19 11:17:15;;;;;;;41.00;8.85;;;15.00;84.60;;;;;;5043708;28;20038;-56
2023/04/19 11:20:01;;;;;;;47.85;9.82;;;15.10;84.70;;;;;;5044785;28;20029;-56
2023/04/19 11:22:34;;;;;;;41.17;9.90;;;15.10;84.50;;;;;;5038236;28;20042;-55
2023/04/19 11:25:11;;;;;;;38.45;8.30;;;15.10;84.40;;;;;;5039560;28;20486;-56
2023/04/19 11:27:37;;;;;;;52.63;9.48;;;15.10;84.30;;;;;;5045883;28;20037;-56
2023/04/19 11:30:07;;;;;;;38.97;8.50;;;15.10;84.20;;;;;;5033039;28;20026;-57
2023/04/19 11:32:33;;;;;;;45.58;10.60;;;15.20;84.40;;;;;;5028157;28;20089;-62
2023/04/19 11:35:06;;;;;;;40.25;10.13;;;15.20;84.40;;;;;;5024213;28;20038;-56
2023/04/19 11:37:35;;;;;;;51.33;10.23;;;15.20;84.20;;;;;;5029951;28;20105;-63
2023/04/19 11:40:01;;;;;;;41.22;9.48;;;15.20;84.80;;;;;;5032485;28;20030;-56
2023/04/19 11:42:26;;;;;;;45.35;9.40;;;15.20;83.90;;;;;;5059393;28;20037;-55
2023/04/19 11:44:53;;;;;;;48.90;10.30;;;15.30;84.00;;;;;;5035895;28;20030;-56
2023/04/19 11:47:19;;;;;;;35.60;10.05;;;15.30;83.90;;;;;;5037715;28;20029;-56
2023/04/19 11:49:45;;;;;;;39.97;9.50;;;15.30;83.80;;;;;;5050391;28;20036;-62
2023/04/19 11:52:10;;;;;;;46.58;10.30;;;15.30;83.80;;;;;;5045224;28;20033;-57
2023/04/19 11:54:36;;;;;;;52.63;9.70;;;15.40;84.50;;;;;;5031775;28;20033;-56
2023/04/19 11:57:07;;;;;;;37.25;10.25;;;15.40;83.80;;;;;;5036790;28;20428;-56
2023/04/19 11:59:36;;;;;;;59.38;11.23;;;15.40;83.70;;;;;;5028468;28;20088;-56
2023/04/19 12:02:09;;;;;;;51.90;11.13;;;15.40;83.50;;;;;;5071784;28;20124;-55
2023/04/19 12:04:34;;;;;;;36.92;9.77;;;15.50;83.50;;;;;;5036056;28;20025;-56
2023/04/19 12:07:02;;;;;;;42.45;9.52;;;15.50;83.40;;;;;;5041519;28;20478;-56
2023/04/19 12:09:28;;;;;;;64.78;10.30;;;15.50;83.30;;;;;;5040196;28;21008;-56
2023/04/19 12:11:53;;;;;;;81.75;11.52;;;15.50;83.20;;;;;;5041062;28;20045;-56
2023/04/19 12:14:22;;;;;;;78.65;13.57;;;15.50;83.00;;;;;;5033410;28;20052;-55
2023/04/19 12:17:04;;;;;;;49.65;9.57;;;15.60;83.10;;;;;;5043219;28;20033;-56
2023/04/19 12:19:51;;;;;;;51.85;11.45;;;15.60;83.00;;;;;;5045471;28;20431;-56
2023/04/19 12:22:22;;;;;;;95.82;15.80;;;15.60;83.00;;;;;;5042737;28;20136;-56
2023/04/19 12:24:50;;;;;;;81.35;12.80;;;15.60;83.00;;;;;;5030293;28;20017;-56
2023/04/19 12:27:16;;;;;;;69.25;12.55;;;15.60;82.90;;;;;;5032466;28;20038;-56
2023/04/19 12:29:42;;;;;;;61.25;11.18;;;15.70;83.00;;;;;;5049173;28;20037;-56
2023/04/19 12:32:09;;;;;;;54.85;10.80;;;15.70;82.70;;;;;;5028729;28;20040;-56
2023/04/19 12:34:34;;;;;;;66.78;11.55;;;15.70;82.70;;;;;;5047674;28;20033;-56
2023/04/19 12:37:01;;;;;;;74.13;11.35;;;15.80;82.60;;;;;;5016242;28;20029;-56